createdAt,value
2024-04-18T00:01:07.273Z,6.53
2024-04-18T00:03:34.200Z,6.35
2024-04-18T00:06:01.063Z,6.97
2024-04-18T00:08:27.809Z,7.50
2024-04-18T00:10:58.951Z,6.72
2024-04-18T00:13:46.076Z,6.50
2024-04-18T00:16:32.819Z,5.43
2024-04-18T00:19:16.041Z,5.68
2024-04-18T00:22:04.270Z,5.25
2024-04-18T00:24:31.561Z,6.03
2024-04-18T00:26:58.347Z,5.15
2024-04-18T00:29:38.176Z,6.00
2024-04-18T00:32:20.030Z,4.30
2024-04-18T00:35:05.900Z,4.57
2024-04-18T00:37:35.754Z,5.00
2024-04-18T00:40:02.586Z,5.30
2024-04-18T00:42:39.802Z,4.88
2024-04-18T00:45:07.847Z,6.43
2024-04-18T00:47:48.149Z,5.10
2024-04-18T00:50:17.300Z,6.10
2024-04-18T00:52:45.141Z,5.00
2024-04-18T00:55:31.125Z,6.32
2024-04-18T00:58:13.604Z,5.75
2024-04-18T01:00:46.588Z,5.78
2024-04-18T01:03:32.637Z,5.72
2024-04-18T01:06:09.191Z,5.00
2024-04-18T01:08:57.456Z,7.75
2024-04-18T01:11:31.324Z,6.20
2024-04-18T01:13:59.930Z,7.20
2024-04-18T01:16:29.577Z,6.70
2024-04-18T01:18:56.354Z,6.93
2024-04-18T01:21:23.389Z,6.82
2024-04-18T01:23:50.157Z,7.60
2024-04-18T01:26:19.378Z,8.85
2024-04-18T01:28:46.163Z,7.32
2024-04-18T01:31:31.897Z,6.65
2024-04-18T01:33:58.868Z,7.22
2024-04-18T01:36:26.154Z,7.68
2024-04-18T01:38:53.534Z,7.55
2024-04-18T01:41:32.777Z,8.55
2024-04-18T01:44:00.170Z,8.18
2024-04-18T01:46:45.668Z,9.02
2024-04-18T01:49:30.010Z,7.72
2024-04-18T01:51:56.835Z,8.57
2024-04-18T01:54:33.560Z,10.60
2024-04-18T01:57:00.982Z,8.27
2024-04-18T01:59:47.727Z,7.75
2024-04-18T02:02:14.818Z,7.05
2024-04-18T02:05:02.007Z,7.85
2024-04-18T02:07:44.330Z,8.57
2024-04-18T02:10:11.292Z,7.43
2024-04-18T02:12:59.531Z,6.47
2024-04-18T02:15:44.720Z,6.95
2024-04-18T02:18:14.594Z,8.38
2024-04-18T02:20:44.038Z,7.53
2024-04-18T02:23:23.424Z,7.65
2024-04-18T02:25:51.403Z,7.07
2024-04-18T02:28:18.149Z,8.48
2024-04-18T02:30:45.002Z,7.90
2024-04-18T02:33:15.902Z,7.85
2024-04-18T02:35:49.131Z,8.43
2024-04-18T02:38:35.613Z,6.45
2024-04-18T02:41:06.400Z,6.57
2024-04-18T02:43:52.662Z,6.80
2024-04-18T02:46:19.705Z,7.85
2024-04-18T02:49:05.325Z,8.60
2024-04-18T02:51:32.216Z,8.93
2024-04-18T02:54:14.938Z,9.93
2024-04-18T02:56:42.370Z,8.68
2024-04-18T02:59:11.499Z,8.90
2024-04-18T03:01:53.232Z,8.45
2024-04-18T03:04:20.260Z,12.40
2024-04-18T03:06:47.478Z,11.18
2024-04-18T03:09:15.509Z,10.05
2024-04-18T03:11:54.884Z,8.93
2024-04-18T03:14:43.635Z,7.22
2024-04-18T03:17:10.755Z,7.47
2024-04-18T03:19:56.176Z,8.30
2024-04-18T03:22:26.080Z,8.32
2024-04-18T03:24:59.678Z,8.50
2024-04-18T03:27:32.562Z,10.95
2024-04-18T03:29:59.376Z,8.07
2024-04-18T03:32:38.598Z,10.88
2024-04-18T03:35:05.936Z,8.57
2024-04-18T03:37:38.567Z,8.40
2024-04-18T03:40:25.193Z,8.45
2024-04-18T03:43:01.210Z,9.05
2024-04-18T03:45:28.462Z,9.00
2024-04-18T03:48:15.214Z,8.75
2024-04-18T03:50:45.014Z,8.77
2024-04-18T03:53:21.819Z,9.85
2024-04-18T03:56:08.820Z,9.20
2024-04-18T03:58:35.590Z,10.93
2024-04-18T04:01:02.667Z,10.60
2024-04-18T04:03:29.600Z,10.38
2024-04-18T04:05:56.540Z,10.95
2024-04-18T04:08:23.259Z,9.48
2024-04-18T04:11:09.969Z,9.60
2024-04-18T04:13:37.343Z,10.77
2024-04-18T04:16:16.724Z,10.23
2024-04-18T04:18:43.644Z,9.82
2024-04-18T04:21:28.995Z,8.93
2024-04-18T04:23:56.394Z,11.18
2024-04-18T04:26:43.536Z,10.48
2024-04-18T04:29:10.263Z,9.07
2024-04-18T04:31:37.108Z,10.32
2024-04-18T04:34:03.873Z,11.05
2024-04-18T04:36:30.698Z,10.07
2024-04-18T04:38:57.970Z,9.85
2024-04-18T04:41:34.645Z,9.55
2024-04-18T04:44:01.451Z,11.35
2024-04-18T04:46:47.507Z,10.13
2024-04-18T04:49:17.737Z,10.07
2024-04-18T04:52:07.924Z,12.38
2024-04-18T04:54:43.475Z,13.07
2024-04-18T04:57:14.872Z,10.93
2024-04-18T04:59:41.963Z,9.60
2024-04-18T05:02:08.949Z,11.00
2024-04-18T05:04:51.736Z,13.68
2024-04-18T05:07:31.175Z,11.97
2024-04-18T05:10:17.855Z,11.40
2024-04-18T05:12:44.698Z,10.65
2024-04-18T05:15:31.449Z,12.65
2024-04-18T05:18:01.289Z,11.00
2024-04-18T05:20:28.109Z,13.75
2024-04-18T05:22:55.067Z,12.75
2024-04-18T05:25:21.935Z,13.77
2024-04-18T05:27:57.164Z,12.27
2024-04-18T05:30:55.170Z,13.90
2024-04-18T05:33:22.238Z,12.63
2024-04-18T05:35:49.133Z,13.65
2024-04-18T05:38:16.022Z,12.82
2024-04-18T05:40:42.836Z,11.13
2024-04-18T05:43:09.576Z,11.20
2024-04-18T05:45:46.395Z,9.48
2024-04-18T05:48:13.545Z,10.35
2024-04-18T05:50:41.122Z,10.05
2024-04-18T05:53:20.540Z,8.48
2024-04-18T05:55:53.215Z,9.77
2024-04-18T05:58:20.000Z,14.05
2024-04-18T06:00:56.785Z,8.25
2024-04-18T06:03:24.254Z,11.07
2024-04-18T06:05:51.371Z,10.30
2024-04-18T06:08:18.239Z,9.13
2024-04-18T06:10:45.109Z,7.93
2024-04-18T06:13:23.874Z,8.38
2024-04-18T06:15:50.811Z,8.55
2024-04-18T06:18:18.126Z,8.40
2024-04-18T06:20:48.820Z,8.63
2024-04-18T06:25:42.951Z,7.30
2024-04-18T06:28:11.943Z,8.35
2024-04-18T06:30:39.645Z,6.65
2024-04-18T06:33:11.127Z,7.75
2024-04-18T06:35:37.960Z,8.38
2024-04-18T06:38:04.918Z,8.07
2024-04-18T06:40:31.746Z,8.43
2024-04-18T06:42:58.628Z,7.57
2024-04-18T06:45:26.399Z,7.65
2024-04-18T06:47:53.860Z,8.38
2024-04-18T06:50:24.051Z,9.55
2024-04-18T06:52:52.954Z,10.75
2024-04-18T06:55:19.741Z,12.40
2024-04-18T06:57:46.554Z,11.85
2024-04-18T07:00:14.509Z,11.57
2024-04-18T07:02:41.631Z,13.13
2024-04-18T07:05:27.546Z,12.35
2024-04-18T07:08:14.304Z,13.75
2024-04-18T07:10:41.160Z,12.70
2024-04-18T07:13:26.357Z,11.82
2024-04-18T07:15:57.538Z,13.00
2024-04-18T07:18:43.176Z,11.70
2024-04-18T07:21:10.067Z,12.13
2024-04-18T07:23:37.237Z,11.20
2024-04-18T07:26:04.658Z,12.55
2024-04-18T07:28:31.871Z,10.18
2024-04-18T07:30:58.707Z,12.07
2024-04-18T07:33:26.982Z,12.02
2024-04-18T07:35:55.062Z,12.85
2024-04-18T07:38:25.691Z,14.48
2024-04-18T07:40:52.473Z,11.30
2024-04-18T07:43:19.361Z,10.88
2024-04-18T07:45:46.197Z,14.23
2024-04-18T07:48:13.509Z,13.18
2024-04-18T07:50:40.941Z,13.07
2024-04-18T07:53:10.064Z,12.65
2024-04-18T07:55:37.504Z,11.02
2024-04-18T07:58:05.185Z,10.75
2024-04-18T08:00:34.373Z,10.50
2024-04-18T08:03:04.747Z,9.77
2024-04-18T08:08:06.743Z,11.38
2024-04-18T08:10:45.985Z,8.63
2024-04-18T08:13:27.661Z,8.13
2024-04-18T08:18:24.548Z,11.90
2024-04-18T08:20:51.559Z,6.95
2024-04-18T08:23:21.535Z,9.88
2024-04-18T08:25:48.493Z,8.10
2024-04-18T08:28:16.293Z,7.05
2024-04-18T08:30:43.168Z,7.57
2024-04-18T08:33:10.125Z,8.02
2024-04-18T08:35:37.248Z,7.03
2024-04-18T08:38:04.173Z,6.65
2024-04-18T08:40:31.661Z,6.03
2024-04-18T08:42:58.553Z,4.65
2024-04-18T08:45:26.945Z,4.95
2024-04-18T08:47:55.617Z,4.30
2024-04-18T08:50:24.053Z,3.53
2024-04-18T08:52:53.145Z,4.60
2024-04-18T08:55:19.931Z,4.38
2024-04-18T08:57:53.523Z,4.18
2024-04-18T09:00:26.710Z,3.50
2024-04-18T09:02:54.339Z,3.40
2024-04-18T09:05:21.164Z,4.28
2024-04-18T09:07:48.062Z,4.60
2024-04-18T09:10:17.011Z,4.90
2024-04-18T09:12:43.863Z,4.10
2024-04-18T09:15:10.666Z,3.30
2024-04-18T09:17:37.594Z,2.83
2024-04-18T09:20:04.943Z,5.40
2024-04-18T09:22:31.803Z,3.20
2024-04-18T09:24:58.645Z,3.38
2024-04-18T09:27:25.522Z,4.05
2024-04-18T09:29:52.259Z,3.67
2024-04-18T09:32:19.338Z,3.13
2024-04-18T09:34:51.915Z,2.08
2024-04-18T09:37:22.406Z,2.97
2024-04-18T09:42:50.855Z,2.60
2024-04-18T09:45:20.639Z,2.28
2024-04-18T09:47:48.942Z,2.23
2024-04-18T09:50:16.309Z,3.40
2024-04-18T09:52:46.391Z,1.90
2024-04-18T09:55:14.938Z,1.73
2024-04-18T09:57:45.125Z,1.50
2024-04-18T10:00:13.209Z,1.77
2024-04-18T10:02:41.742Z,2.15
2024-04-18T10:05:09.348Z,2.38
2024-04-18T10:07:37.418Z,2.58
2024-04-18T10:10:05.898Z,1.75
2024-04-18T10:12:33.921Z,1.45
2024-04-18T10:15:01.519Z,1.33
2024-04-18T10:17:32.759Z,0.85
2024-04-18T10:20:03.810Z,1.48
2024-04-18T10:22:45.161Z,1.08
2024-04-18T10:25:21.637Z,1.60
2024-04-18T10:27:48.578Z,1.08
2024-04-18T10:30:17.584Z,1.38
2024-04-18T10:32:46.339Z,1.02
2024-04-18T10:35:15.929Z,0.80
2024-04-18T10:37:52.494Z,1.10
2024-04-18T10:40:19.410Z,2.28
2024-04-18T10:42:46.284Z,2.33
2024-04-18T10:45:15.637Z,1.75
2024-04-18T10:47:44.201Z,2.13
2024-04-18T10:50:11.179Z,3.22
2024-04-18T10:52:37.944Z,1.83
2024-04-18T10:55:05.059Z,1.10
2024-04-18T10:57:32.758Z,1.80
2024-04-18T10:59:59.729Z,1.70
2024-04-18T11:02:27.705Z,1.10
2024-04-18T11:04:55.488Z,0.90
2024-04-18T11:07:22.353Z,0.55
2024-04-18T11:09:49.206Z,0.90
2024-04-18T11:12:16.510Z,2.30
2024-04-18T11:14:43.464Z,1.52
2024-04-18T11:17:10.245Z,1.30
2024-04-18T11:19:37.876Z,0.98
2024-04-18T11:22:04.985Z,1.30
2024-04-18T11:24:31.751Z,1.17
2024-04-18T11:26:58.642Z,1.13
2024-04-18T11:29:27.953Z,0.95
2024-04-18T11:32:03.388Z,1.38
2024-04-18T11:34:30.662Z,0.90
2024-04-18T11:36:58.308Z,1.10
2024-04-18T11:39:29.038Z,1.00
2024-04-18T11:41:55.870Z,1.70
2024-04-18T11:44:22.715Z,1.27
2024-04-18T11:46:51.749Z,2.33
2024-04-18T11:49:18.710Z,1.25
2024-04-18T11:51:45.517Z,1.13
2024-04-18T11:54:12.493Z,1.35
2024-04-18T11:56:39.466Z,1.40
2024-04-18T11:59:23.691Z,1.17
2024-04-18T12:01:51.489Z,1.58
2024-04-18T12:04:21.495Z,2.45
2024-04-18T12:06:48.459Z,1.60
2024-04-18T12:09:28.161Z,1.35
2024-04-18T12:11:59.789Z,1.70
2024-04-18T12:14:48.275Z,1.83
2024-04-18T12:17:29.433Z,2.65
2024-04-18T12:20:23.923Z,1.05
2024-04-18T12:22:50.797Z,1.80
2024-04-18T12:25:18.792Z,0.70
2024-04-18T12:27:46.724Z,0.82
2024-04-18T12:30:32.287Z,1.00
2024-04-18T12:33:18.050Z,1.90
2024-04-18T12:35:45.144Z,1.65
2024-04-18T12:38:12.002Z,1.52
2024-04-18T12:40:46.006Z,1.13
2024-04-18T12:43:13.684Z,1.48
2024-04-18T12:46:06.394Z,0.70
2024-04-18T12:48:50.943Z,1.63
2024-04-18T12:51:18.069Z,0.80
2024-04-18T12:53:44.972Z,2.10
2024-04-18T12:56:12.039Z,1.33
2024-04-18T12:58:42.347Z,0.85
2024-04-18T13:01:10.310Z,1.20
2024-04-18T13:03:41.439Z,0.90
2024-04-18T13:06:28.091Z,1.90
2024-04-18T13:08:56.661Z,1.75
2024-04-18T13:11:42.195Z,2.00
2024-04-18T13:14:09.399Z,1.13
2024-04-18T13:16:36.417Z,3.60
2024-04-18T13:19:12.431Z,1.10
2024-04-18T13:21:40.228Z,1.17
2024-04-18T13:24:12.269Z,2.10
2024-04-18T13:26:52.226Z,2.97
2024-04-18T13:29:20.002Z,1.63
2024-04-18T13:31:49.643Z,2.10
2024-04-18T13:34:22.707Z,0.75
2024-04-18T13:36:49.874Z,1.35
2024-04-18T13:39:17.035Z,1.08
2024-04-18T13:42:04.095Z,1.77
2024-04-18T13:44:51.492Z,1.95
2024-04-18T13:47:44.342Z,1.50
2024-04-18T13:50:11.335Z,1.02
2024-04-18T13:52:38.107Z,1.23
2024-04-18T13:55:05.724Z,2.67
2024-04-18T13:57:33.102Z,1.73
2024-04-18T14:00:19.458Z,1.63
2024-04-18T14:03:05.869Z,2.00
2024-04-18T14:05:33.340Z,1.48
2024-04-18T14:08:04.353Z,1.88
2024-04-18T14:10:32.460Z,1.40
2024-04-18T14:13:24.576Z,1.52
2024-04-18T14:16:13.822Z,1.95
2024-04-18T14:18:54.151Z,1.83
2024-04-18T14:21:34.519Z,1.40
2024-04-18T14:24:02.316Z,2.53
2024-04-18T14:26:29.883Z,1.80
2024-04-18T14:29:17.647Z,3.67
2024-04-18T14:32:03.111Z,2.35
2024-04-18T14:34:49.017Z,1.45
2024-04-18T14:37:19.123Z,1.17
2024-04-18T14:39:47.233Z,1.88
2024-04-18T14:42:14.733Z,1.63
2024-04-18T14:44:42.174Z,1.65
2024-04-18T14:47:17.016Z,2.78
2024-04-18T14:50:01.179Z,1.67
2024-04-18T14:52:34.567Z,3.03
2024-04-18T14:55:23.786Z,2.05
2024-04-18T14:57:51.329Z,1.63
2024-04-18T15:00:19.105Z,2.13
2024-04-18T15:02:47.082Z,1.73
2024-04-18T15:05:33.620Z,1.20
2024-04-18T15:08:01.109Z,2.05
2024-04-18T15:10:47.440Z,3.15
2024-04-18T15:13:15.251Z,2.72
2024-04-18T15:15:44.448Z,1.38
2024-04-18T15:18:14.471Z,1.58
2024-04-18T15:20:42.211Z,0.98
2024-04-18T15:23:11.293Z,3.35
2024-04-18T15:25:38.812Z,1.25
2024-04-18T15:28:06.847Z,2.33
2024-04-18T15:30:34.809Z,1.25
2024-04-18T15:33:21.320Z,1.60
2024-04-18T15:35:48.859Z,1.52
2024-04-18T15:38:16.248Z,2.72
2024-04-18T15:41:02.571Z,2.58
2024-04-18T15:43:35.360Z,1.15
2024-04-18T15:46:04.399Z,1.70
2024-04-18T15:48:31.505Z,1.65
2024-04-18T15:50:58.793Z,1.50
2024-04-18T15:53:29.726Z,0.95
2024-04-18T15:56:06.034Z,1.02
2024-04-18T15:58:52.769Z,1.10
2024-04-18T16:01:19.626Z,1.60
2024-04-18T16:04:06.853Z,1.45
2024-04-18T16:06:53.715Z,2.28
2024-04-18T16:09:40.662Z,2.80
2024-04-18T16:12:22.935Z,2.55
2024-04-18T16:15:06.168Z,1.20
2024-04-18T16:17:34.058Z,1.58
2024-04-18T16:20:10.532Z,2.42
2024-04-18T16:22:40.642Z,1.52
2024-04-18T16:25:26.946Z,4.13
2024-04-18T16:27:53.809Z,3.20
2024-04-18T16:30:21.146Z,1.70
2024-04-18T16:32:48.956Z,2.03
2024-04-18T16:35:16.431Z,2.42
2024-04-18T16:37:45.561Z,0.95
2024-04-18T16:40:17.180Z,1.92
2024-04-18T16:43:00.054Z,1.95
2024-04-18T16:45:48.143Z,1.10
2024-04-18T16:48:15.032Z,1.88
2024-04-18T16:50:41.845Z,2.72
2024-04-18T16:53:08.571Z,1.50
2024-04-18T16:55:44.565Z,2.00
2024-04-18T16:58:15.210Z,1.92
2024-04-18T17:01:00.072Z,2.17
2024-04-18T17:03:28.120Z,0.95
2024-04-18T17:06:05.960Z,0.80
2024-04-18T17:08:33.578Z,2.00
2024-04-18T17:11:00.413Z,1.55
2024-04-18T17:13:52.371Z,2.63
2024-04-18T17:16:20.202Z,1.70
2024-04-18T17:18:47.323Z,2.40
2024-04-18T17:21:14.390Z,1.33
2024-04-18T17:23:41.288Z,2.03
2024-04-18T17:26:08.151Z,1.40
2024-04-18T17:28:35.195Z,1.73
2024-04-18T17:31:02.171Z,1.08
2024-04-18T17:33:29.341Z,2.13
2024-04-18T17:36:00.108Z,2.47
2024-04-18T17:38:46.248Z,1.23
2024-04-18T17:41:29.505Z,2.65
2024-04-18T17:44:15.920Z,2.63
2024-04-18T17:46:59.573Z,2.35
2024-04-18T17:49:27.787Z,1.63
2024-04-18T17:51:55.232Z,1.38
2024-04-18T17:54:22.873Z,2.08
2024-04-18T17:56:50.088Z,3.13
2024-04-18T17:59:17.022Z,2.58
2024-04-18T18:01:44.655Z,2.58
2024-04-18T18:04:12.886Z,3.38
2024-04-18T18:06:40.218Z,3.13
2024-04-18T18:09:07.030Z,2.35
2024-04-18T18:11:34.074Z,2.33
2024-04-18T18:14:01.953Z,2.30
2024-04-18T18:16:48.696Z,2.10
2024-04-18T18:19:15.774Z,2.30
2024-04-18T18:21:56.058Z,4.55
2024-04-18T18:24:23.076Z,3.40
2024-04-18T18:26:49.889Z,4.13
2024-04-18T18:29:18.327Z,3.47
2024-04-18T18:32:03.721Z,3.13
2024-04-18T18:34:31.068Z,4.80
2024-04-18T18:36:57.837Z,4.00
2024-04-18T18:39:24.925Z,2.60
2024-04-18T18:41:51.803Z,2.83
2024-04-18T18:44:19.220Z,3.78
2024-04-18T18:46:46.052Z,2.95
2024-04-18T18:49:16.016Z,3.22
2024-04-18T18:51:44.809Z,2.63
2024-04-18T18:54:12.928Z,3.67
2024-04-18T18:56:41.153Z,5.20
2024-04-18T18:59:26.939Z,3.65
2024-04-18T19:01:53.760Z,4.35
2024-04-18T19:04:21.536Z,4.78
2024-04-18T19:06:48.467Z,3.38
2024-04-18T19:09:15.301Z,3.17
2024-04-18T19:11:42.274Z,2.88
2024-04-18T19:14:09.154Z,3.78
2024-04-18T19:16:56.005Z,4.18
2024-04-18T19:19:25.592Z,4.95
2024-04-18T19:21:52.936Z,4.75
2024-04-18T19:24:19.755Z,4.88
2024-04-18T19:27:02.142Z,5.20
2024-04-18T19:29:39.572Z,3.95
2024-04-18T19:32:13.315Z,4.15
2024-04-18T19:34:40.275Z,3.70
2024-04-18T19:37:07.141Z,3.30
2024-04-18T19:39:33.961Z,5.35
2024-04-18T19:42:01.136Z,5.45
2024-04-18T19:44:28.028Z,5.22
2024-04-18T19:46:54.871Z,5.45
2024-04-18T19:49:21.716Z,4.82
2024-04-18T19:51:56.526Z,4.38
2024-04-18T19:54:23.447Z,5.05
2024-04-18T19:56:50.292Z,4.38
2024-04-18T19:59:17.144Z,5.35
2024-04-18T20:01:44.051Z,5.20
2024-04-18T20:04:10.948Z,4.93
2024-04-18T20:06:39.504Z,4.15
2024-04-18T20:09:06.573Z,3.92
2024-04-18T20:11:33.460Z,4.55
2024-04-18T20:14:00.260Z,6.30
2024-04-18T20:16:27.046Z,3.72
2024-04-18T20:19:15.874Z,5.07
2024-04-18T20:21:44.343Z,4.28
2024-04-18T20:24:12.528Z,4.53
2024-04-18T20:26:58.344Z,6.13
2024-04-18T20:29:43.652Z,5.88
2024-04-18T20:32:26.968Z,5.25
2024-04-18T20:34:55.240Z,6.35
2024-04-18T20:37:23.423Z,6.32
2024-04-18T20:39:51.611Z,5.70
2024-04-18T20:42:19.867Z,5.65
2024-04-18T20:44:59.826Z,5.47
2024-04-18T20:47:27.121Z,6.82
2024-04-18T20:49:53.904Z,4.55
2024-04-18T20:52:20.843Z,3.40
2024-04-18T20:54:47.687Z,5.38
2024-04-18T20:57:14.557Z,4.38
2024-04-18T20:59:41.552Z,3.35
2024-04-18T21:02:08.747Z,4.38
2024-04-18T21:04:35.566Z,3.72
2024-04-18T21:07:02.396Z,4.63
2024-04-18T21:09:29.178Z,5.05
2024-04-18T21:11:56.063Z,4.32
2024-04-18T21:14:22.803Z,6.13
2024-04-18T21:16:49.619Z,3.78
2024-04-18T21:19:20.777Z,6.18
2024-04-18T21:21:48.575Z,4.18
2024-04-18T21:24:15.544Z,4.10
2024-04-18T21:26:49.940Z,4.38
2024-04-18T21:29:17.103Z,5.63
2024-04-18T21:31:44.133Z,4.47
2024-04-18T21:34:14.217Z,4.50
2024-04-18T21:36:41.255Z,8.55
2024-04-18T21:39:08.246Z,5.95
2024-04-18T21:41:39.371Z,6.35
2024-04-18T21:44:06.442Z,3.00
2024-04-18T21:46:33.445Z,7.43
2024-04-18T21:49:00.388Z,3.47
2024-04-18T21:51:27.414Z,3.85
2024-04-18T21:53:54.427Z,4.88
2024-04-18T21:56:21.166Z,4.43
2024-04-18T21:58:52.314Z,4.28
2024-04-18T22:01:37.914Z,4.93
2024-04-18T22:04:04.997Z,4.07
2024-04-18T22:06:32.120Z,4.65
2024-04-18T22:08:58.929Z,4.60
2024-04-18T22:11:26.158Z,3.13
2024-04-18T22:13:53.072Z,3.80
2024-04-18T22:16:19.842Z,2.88
2024-04-18T22:18:46.702Z,2.95
2024-04-18T22:21:13.533Z,2.92
2024-04-18T22:23:40.397Z,4.03
2024-04-18T22:26:07.201Z,3.13
2024-04-18T22:28:33.970Z,3.30
2024-04-18T22:31:01.618Z,4.13
2024-04-18T22:33:28.683Z,3.33
2024-04-18T22:35:55.910Z,3.78
2024-04-18T22:38:22.813Z,3.40
2024-04-18T22:40:49.888Z,2.63
2024-04-18T22:43:16.728Z,2.75
2024-04-18T22:45:43.752Z,2.33
2024-04-18T22:48:10.912Z,3.17
2024-04-18T22:50:37.938Z,2.80
2024-04-18T22:53:04.937Z,2.60
2024-04-18T22:55:31.689Z,3.03
2024-04-18T22:58:01.984Z,4.25
2024-04-18T23:00:30.564Z,2.80
2024-04-18T23:02:57.529Z,3.47
2024-04-18T23:05:36.842Z,3.22
2024-04-18T23:08:04.190Z,4.63
2024-04-18T23:10:33.141Z,2.85
2024-04-18T23:13:00.411Z,3.05
2024-04-18T23:15:45.615Z,3.45
2024-04-18T23:18:12.682Z,3.38
2024-04-18T23:20:39.821Z,7.15
2024-04-18T23:23:06.702Z,4.90
2024-04-18T23:25:33.546Z,4.57
2024-04-18T23:28:00.296Z,4.53
2024-04-18T23:30:27.158Z,4.63
2024-04-18T23:32:54.027Z,5.45
2024-04-18T23:35:20.934Z,3.83
2024-04-18T23:37:47.752Z,4.22
2024-04-18T23:40:14.552Z,6.07
2024-04-18T23:42:41.550Z,5.20
2024-04-18T23:45:08.994Z,4.72
2024-04-18T23:47:35.970Z,4.95
2024-04-18T23:50:03.364Z,3.78
2024-04-18T23:52:30.186Z,3.78
2024-04-18T23:54:57.211Z,4.10
2024-04-18T23:57:25.733Z,4.03
2024-04-18T23:59:52.610Z,4.97
